Terminal Aerodrome Forecast
Issued by NWS Miami, FL

Home | Current Version | Previous Version | Text Only | Print | Product List | Glossary On
Versions: 1 2 3 4 5 6 7 8 9 10 11 12 13 14 15 16 17 18 19 20 21 22 23 24 25 26
000
FTUS42 KMFL 210902 AAA
TAFAPF
TAF AMD
KAPF 210902Z 2109/2206 VRB03KT P6SM BKN050 BKN250
     FM211500 10009KT P6SM SCT030 BKN250
     FM212000 23009KT P6SM FEW030 BKN250=

USA.gov is the U.S. government's official web portal to all federal, state and local government web resources and services.